Time;durP1;ratioP1;P1;durP2;ratioP2;P2;SDS_P1;SDS_P2;PMS_P1;PMS_P2;Temp;Humidity;BMP_temperature;BMP_pressure;BME280_temperature;BME280_humidity;BME280_pressure;Samples;Min_cycle;Max_cycle;Signal;HPM_P1;HPM_P2
2022/12/10 00:01:09;;;;;;;13.57;8.10;;;0.60;78.10;;;;;;4951603;28;20047;-60
2022/12/10 00:03:36;;;;;;;10.15;7.30;;;0.60;78.20;;;;;;4968468;28;20047;-60
2022/12/10 00:06:04;;;;;;;14.00;9.55;;;0.60;78.20;;;;;;4970413;28;20050;-61
2022/12/10 00:08:30;;;;;;;14.00;6.90;;;0.60;78.20;;;;;;4972270;28;20030;-61
2022/12/10 00:10:57;;;;;;;10.32;6.80;;;0.60;78.30;;;;;;4970575;28;20066;-61
2022/12/10 00:13:22;;;;;;;9.00;7.30;;;0.60;78.30;;;;;;4972030;28;20331;-61
2022/12/10 00:15:48;;;;;;;11.25;7.35;;;0.60;78.40;;;;;;4967171;28;20019;-58
2022/12/10 00:18:14;;;;;;;18.67;9.20;;;0.60;78.30;;;;;;4965494;28;20383;-61
2022/12/10 00:20:40;;;;;;;16.10;8.25;;;0.60;78.40;;;;;;4969316;28;20034;-60
2022/12/10 00:23:05;;;;;;;13.00;8.35;;;0.60;78.40;;;;;;4960746;28;20509;-61
2022/12/10 00:25:34;;;;;;;14.02;7.97;;;0.60;78.50;;;;;;4970219;28;20025;-61
2022/12/10 00:28:00;;;;;;;13.95;6.93;;;0.60;78.50;;;;;;4971325;28;20363;-58
2022/12/10 00:30:25;;;;;;;15.15;7.50;;;0.60;78.50;;;;;;4970955;28;20038;-60
2022/12/10 00:32:51;;;;;;;12.65;8.13;;;0.60;78.50;;;;;;4970776;28;20027;-61
2022/12/10 00:35:17;;;;;;;16.67;9.32;;;0.60;78.50;;;;;;4970388;28;20027;-61
2022/12/10 00:37:43;;;;;;;10.15;7.57;;;0.60;78.50;;;;;;4971256;28;20347;-61
2022/12/10 00:40:12;;;;;;;18.52;7.60;;;0.60;78.50;;;;;;4971436;28;20042;-60
2022/12/10 00:42:38;;;;;;;12.70;7.90;;;0.60;78.60;;;;;;4971907;28;20086;-61
2022/12/10 00:45:04;;;;;;;13.80;7.53;;;0.60;78.60;;;;;;4984394;28;20109;-61
2022/12/10 00:47:30;;;;;;;10.48;6.75;;;0.60;78.60;;;;;;4970816;28;20030;-61
2022/12/10 00:49:56;;;;;;;12.05;7.03;;;0.60;78.70;;;;;;4970007;28;20648;-60
2022/12/10 00:52:21;;;;;;;11.73;7.63;;;0.60;78.70;;;;;;4970977;28;20109;-61
2022/12/10 00:54:47;;;;;;;14.63;9.88;;;0.60;78.70;;;;;;4970394;28;20057;-60
2022/12/10 00:57:13;;;;;;;12.77;8.23;;;0.60;78.60;;;;;;4971107;28;20027;-61
2022/12/10 00:59:38;;;;;;;12.48;8.43;;;0.60;78.60;;;;;;4969517;28;20030;-57
2022/12/10 01:02:04;;;;;;;10.90;7.38;;;0.50;78.60;;;;;;4973151;28;20040;-58
2022/12/10 01:04:30;;;;;;;17.02;8.00;;;0.60;78.70;;;;;;4970019;28;20496;-60
2022/12/10 01:06:55;;;;;;;10.88;6.65;;;0.50;78.60;;;;;;4971540;28;20137;-61
2022/12/10 01:09:24;;;;;;;16.30;9.02;;;0.50;78.70;;;;;;4970861;28;20492;-58
2022/12/10 01:11:51;;;;;;;14.80;8.02;;;0.50;78.70;;;;;;4971716;28;20023;-58
2022/12/10 01:14:24;;;;;;;8.77;6.82;;;0.50;78.80;;;;;;4968575;28;20406;-61
2022/12/10 01:16:52;;;;;;;;;;;0.50;78.80;;;;;;4972244;28;20033;-60
2022/12/10 01:19:18;;;;;;;11.35;6.15;;;0.50;78.60;;;;;;4963747;28;20432;-61
2022/12/10 01:21:44;;;;;;;9.63;7.40;;;0.40;78.80;;;;;;4970113;28;20114;-61
2022/12/10 01:24:10;;;;;;;13.20;7.93;;;0.40;78.80;;;;;;4969947;28;20043;-61
2022/12/10 01:26:35;;;;;;;16.98;9.73;;;0.40;78.70;;;;;;4971604;28;20097;-60
2022/12/10 01:29:03;;;;;;;16.25;8.68;;;0.40;78.80;;;;;;4969007;28;20114;-60
2022/12/10 01:31:35;;;;;;;18.42;9.13;;;0.40;78.80;;;;;;4970987;28;20474;-58
2022/12/10 01:34:02;;;;;;;14.77;8.77;;;0.40;78.80;;;;;;4970439;28;20054;-60
2022/12/10 01:36:31;;;;;;;12.23;8.40;;;0.40;78.80;;;;;;4969631;28;20058;-60
2022/12/10 01:38:58;;;;;;;15.68;7.55;;;0.40;78.80;;;;;;4970327;28;20038;-57
2022/12/10 01:41:31;;;;;;;10.55;6.10;;;0.40;78.70;;;;;;4968484;28;20401;-57
2022/12/10 01:44:23;;;;;;;14.20;8.13;;;0.30;78.60;;;;;;4968392;28;20370;-58
2022/12/10 01:46:54;;;;;;;14.93;8.50;;;0.40;78.60;;;;;;4970407;28;20056;-58
2022/12/10 01:49:23;;;;;;;12.43;7.25;;;0.30;79.30;;;;;;4969308;28;20398;-57
2022/12/10 01:51:55;;;;;;;12.82;8.15;;;0.30;78.70;;;;;;4969953;28;20026;-57
2022/12/10 01:54:22;;;;;;;11.80;7.35;;;0.30;78.80;;;;;;4969257;28;20023;-56
2022/12/10 01:56:58;;;;;;;13.93;8.38;;;0.20;78.70;;;;;;4969704;28;20039;-58
2022/12/10 01:59:25;;;;;;;12.75;9.82;;;0.20;78.70;;;;;;4963459;28;20102;-60
2022/12/10 02:02:09;;;;;;;12.77;7.32;;;0.20;78.80;;;;;;4964736;28;20043;-60
2022/12/10 02:04:55;;;;;;;11.45;8.45;;;0.30;78.70;;;;;;4965441;28;20039;-60
2022/12/10 02:07:27;;;;;;;11.20;6.65;;;0.20;78.60;;;;;;4968843;28;20027;-60
2022/12/10 02:10:14;;;;;;;10.70;7.43;;;0.20;78.70;;;;;;4970931;28;20081;-58
2022/12/10 02:13:09;;;;;;;11.02;6.78;;;0.20;78.70;;;;;;4969694;28;20706;-56
2022/12/10 02:15:43;;;;;;;14.27;8.40;;;0.10;78.70;;;;;;4972134;28;20031;-58
2022/12/10 02:18:16;;;;;;;15.98;8.20;;;0.10;78.70;;;;;;4977421;28;20047;-58
2022/12/10 02:20:52;;;;;;;13.38;7.28;;;0.10;78.70;;;;;;4973981;28;20026;-60
2022/12/10 02:23:22;;;;;;;10.35;7.15;;;0.10;78.70;;;;;;4976695;28;20030;-57
2022/12/10 02:26:18;;;;;;;15.75;8.25;;;0.10;78.70;;;;;;4975541;28;20034;-60
2022/12/10 02:29:13;;;;;;;12.45;7.35;;;0.10;78.60;;;;;;4976381;28;20026;-60
2022/12/10 02:32:07;;;;;;;12.15;7.25;;;0.10;78.60;;;;;;4975907;28;20043;-60
2022/12/10 02:34:38;;;;;;;11.98;7.50;;;0.10;78.60;;;;;;4968614;28;20051;-60
2022/12/10 02:37:10;;;;;;;12.68;6.10;;;0.10;78.60;;;;;;4975325;28;20026;-61
2022/12/10 02:39:40;;;;;;;18.73;8.88;;;0.00;78.60;;;;;;4976466;28;20038;-60
2022/12/10 02:42:08;;;;;;;19.25;8.10;;;0.00;78.50;;;;;;4975612;28;20041;-60
2022/12/10 02:44:36;;;;;;;13.55;8.45;;;0.00;79.10;;;;;;4975761;28;20030;-60
2022/12/10 02:47:03;;;;;;;15.43;7.55;;;0.00;78.50;;;;;;4976399;28;20030;-57
2022/12/10 02:49:30;;;;;;;17.98;8.73;;;0.00;78.50;;;;;;4975012;28;20046;-58
2022/12/10 02:51:56;;;;;;;11.20;7.20;;;0.00;78.50;;;;;;4975675;28;20490;-60
2022/12/10 02:54:40;;;;;;;8.48;6.65;;;0.00;78.50;;;;;;4975481;28;20027;-58
2022/12/10 02:57:49;;;;;;;16.95;8.50;;;0.00;78.40;;;;;;4975903;28;20078;-60
2022/12/10 03:00:19;;;;;;;17.85;8.35;;;0.00;78.30;;;;;;4976257;28;20050;-58
2022/12/10 03:03:22;;;;;;;13.20;6.20;;;-0.10;78.50;;;;;;4976249;28;20050;-60
2022/12/10 03:05:57;;;;;;;13.98;8.20;;;-0.10;78.50;;;;;;4974552;28;20023;-60
2022/12/10 03:08:28;;;;;;;14.55;8.40;;;-0.10;78.60;;;;;;4976094;28;20038;-60
2022/12/10 03:11:10;;;;;;;18.88;8.50;;;-0.10;78.50;;;;;;4976349;28;20023;-60
2022/12/10 03:13:43;;;;;;;10.68;6.85;;;-0.10;78.30;;;;;;4976049;28;20023;-58
2022/12/10 03:16:10;;;;;;;13.15;8.45;;;-0.10;78.40;;;;;;4972765;28;20038;-61
2022/12/10 03:18:37;;;;;;;12.00;7.05;;;-0.10;78.30;;;;;;4976053;28;20375;-58
2022/12/10 03:21:06;;;;;;;8.15;6.80;;;-0.10;78.30;;;;;;4974995;28;20042;-58
2022/12/10 03:23:37;;;;;;;10.98;8.63;;;-0.10;78.30;;;;;;4972848;28;20497;-61
2022/12/10 03:26:04;;;;;;;12.63;7.22;;;-0.10;78.30;;;;;;4972812;28;20035;-57
2022/12/10 03:28:36;;;;;;;12.02;8.43;;;-0.10;78.30;;;;;;4971714;28;20413;-58
2022/12/10 03:31:03;;;;;;;14.13;8.37;;;-0.10;78.30;;;;;;4973243;28;20138;-59
2022/12/10 03:33:29;;;;;;;17.20;7.18;;;-0.10;78.30;;;;;;4970218;28;20030;-61
2022/12/10 03:35:56;;;;;;;11.02;6.72;;;-0.10;78.30;;;;;;4971758;28;20027;-61
2022/12/10 03:38:22;;;;;;;10.63;6.65;;;-0.20;78.30;;;;;;4969412;28;20877;-61
2022/12/10 03:40:48;;;;;;;6.38;5.60;;;-0.20;78.90;;;;;;4967097;28;20058;-60
2022/12/10 03:43:13;;;;;;;12.48;7.35;;;-0.20;78.30;;;;;;4972030;28;20038;-61
2022/12/10 03:45:40;;;;;;;13.35;8.10;;;-0.20;78.20;;;;;;4971090;28;20538;-56
2022/12/10 03:48:06;;;;;;;19.15;9.02;;;-0.20;78.20;;;;;;4972301;28;20377;-60
2022/12/10 03:50:32;;;;;;;13.38;8.43;;;-0.20;78.20;;;;;;4972126;28;20038;-61
2022/12/10 03:52:58;;;;;;;11.38;7.40;;;-0.20;78.70;;;;;;4953681;28;20113;-61
2022/12/10 03:55:23;;;;;;;10.88;7.97;;;-0.30;78.10;;;;;;4972418;28;20050;-58
2022/12/10 03:57:49;;;;;;;13.27;8.18;;;-0.30;78.10;;;;;;4987940;28;20045;-60
2022/12/10 04:00:15;;;;;;;10.75;7.70;;;-0.30;78.20;;;;;;4972509;28;20030;-60
2022/12/10 04:02:41;;;;;;;15.07;8.93;;;-0.30;78.20;;;;;;4972731;28;20042;-58
2022/12/10 04:05:07;;;;;;;15.73;8.25;;;-0.30;78.10;;;;;;4972222;28;20047;-57
2022/12/10 04:07:33;;;;;;;10.70;7.68;;;-0.30;78.10;;;;;;4972766;28;20481;-57
2022/12/10 04:09:59;;;;;;;14.18;8.88;;;-0.30;78.10;;;;;;4972119;28;20358;-61
2022/12/10 04:12:25;;;;;;;19.80;8.13;;;-0.30;78.10;;;;;;4960217;28;20418;-58
2022/12/10 04:17:35;;;;;;;11.38;7.05;;;-0.30;78.10;;;;;;4961831;28;20065;-57
2022/12/10 04:20:01;;;;;;;8.00;6.25;;;-0.30;78.10;;;;;;4971516;28;20030;-61
2022/12/10 04:27:57;;;;;;;9.77;6.53;;;-0.30;78.10;;;;;;4972406;28;20045;-58
2022/12/10 04:30:23;;;;;;;11.45;6.95;;;-0.30;78.00;;;;;;4972196;28;20089;-59
2022/12/10 04:32:48;;;;;;;17.48;8.73;;;-0.30;78.00;;;;;;4971852;28;20027;-58
2022/12/10 04:35:14;;;;;;;15.43;7.80;;;-0.20;78.00;;;;;;4971656;28;20026;-61
2022/12/10 04:37:40;;;;;;;15.80;8.68;;;-0.20;78.00;;;;;;4971240;28;20035;-61
2022/12/10 04:40:06;;;;;;;13.68;8.10;;;-0.10;78.00;;;;;;4972368;28;20027;-58
2022/12/10 04:42:33;;;;;;;13.10;8.40;;;-0.10;78.00;;;;;;4963262;28;20438;-58
2022/12/10 04:44:58;;;;;;;18.40;10.00;;;0.00;78.00;;;;;;4971937;28;20041;-61
2022/12/10 04:47:24;;;;;;;20.63;11.40;;;0.10;78.10;;;;;;4972425;28;20027;-61
2022/12/10 04:49:51;;;;;;;15.60;11.40;;;0.20;78.60;;;;;;4969742;28;20061;-60
2022/12/10 04:52:17;;;;;;;18.77;12.38;;;0.20;78.80;;;;;;4986347;28;20169;-58
2022/12/10 04:54:43;;;;;;;18.50;10.95;;;0.30;78.80;;;;;;4970649;28;20034;-55
2022/12/10 04:57:10;;;;;;;18.90;11.25;;;0.40;78.70;;;;;;4968741;28;20035;-58
2022/12/10 04:59:36;;;;;;;15.88;10.48;;;0.40;78.60;;;;;;4969142;28;20033;-58
2022/12/10 05:02:03;;;;;;;20.27;12.07;;;0.40;78.60;;;;;;4970099;28;20379;-58
2022/12/10 05:04:28;;;;;;;28.77;13.25;;;0.50;78.80;;;;;;4968857;28;20065;-58
2022/12/10 05:06:54;;;;;;;24.10;11.88;;;0.40;78.90;;;;;;4971331;28;20035;-58
2022/12/10 05:09:20;;;;;;;18.80;12.50;;;0.50;79.10;;;;;;4971059;28;20023;-61
2022/12/10 05:11:46;;;;;;;17.10;12.52;;;0.40;79.30;;;;;;4971819;28;20026;-61
2022/12/10 05:14:13;;;;;;;20.10;12.68;;;0.40;79.60;;;;;;4969244;28;20014;-56
2022/12/10 05:16:39;;;;;;;28.27;14.15;;;0.40;79.60;;;;;;4971240;28;20114;-58
2022/12/10 05:19:05;;;;;;;18.27;11.02;;;0.40;79.80;;;;;;4971989;28;20050;-58
2022/12/10 05:24:16;;;;;;;21.55;14.38;;;0.40;80.00;;;;;;4965321;28;20041;-60
2022/12/10 05:26:42;;;;;;;19.27;12.50;;;0.40;80.10;;;;;;4958794;28;20498;-61
2022/12/10 05:29:08;;;;;;;22.80;12.55;;;0.40;80.20;;;;;;4969591;28;20498;-60
2022/12/10 05:31:34;;;;;;;32.60;12.90;;;0.40;80.30;;;;;;4971562;28;20109;-61
2022/12/10 05:34:00;;;;;;;21.13;13.82;;;0.40;80.50;;;;;;4969005;28;20042;-60
2022/12/10 05:36:29;;;;;;;21.90;12.25;;;0.40;80.60;;;;;;4970549;28;20086;-61
2022/12/10 05:38:56;;;;;;;26.30;12.98;;;0.40;80.70;;;;;;4968987;28;20034;-61
2022/12/10 05:41:24;;;;;;;27.90;12.95;;;0.40;80.60;;;;;;4970958;28;20113;-61
2022/12/10 05:43:53;;;;;;;22.40;11.65;;;0.50;80.60;;;;;;4969374;28;20034;-61
2022/12/10 05:46:22;;;;;;;15.93;12.02;;;0.50;80.60;;;;;;4970979;28;20023;-61
2022/12/10 05:48:48;;;;;;;19.30;11.35;;;0.50;80.90;;;;;;4969427;28;20168;-57
2022/12/10 05:51:21;;;;;;;24.73;14.57;;;0.50;80.60;;;;;;4970325;28;20047;-61
2022/12/10 05:53:50;;;;;;;26.77;14.40;;;0.50;80.70;;;;;;4967830;28;20033;-60
2022/12/10 05:56:20;;;;;;;21.17;12.35;;;0.50;80.70;;;;;;4970930;28;20050;-61
2022/12/10 05:58:48;;;;;;;26.00;13.30;;;0.40;80.80;;;;;;4969623;28;20069;-60
2022/12/10 06:01:17;;;;;;;24.40;13.93;;;0.40;80.90;;;;;;4970521;28;20050;-59
2022/12/10 06:03:43;;;;;;;23.50;14.73;;;0.40;81.10;;;;;;4983734;28;20490;-61
2022/12/10 06:06:09;;;;;;;31.33;15.02;;;0.40;81.30;;;;;;4966707;28;20479;-59
2022/12/10 06:08:35;;;;;;;21.92;12.45;;;0.40;81.40;;;;;;4969647;28;20031;-61
2022/12/10 06:11:02;;;;;;;27.08;13.43;;;0.30;81.50;;;;;;4969805;28;20038;-61
2022/12/10 06:13:28;;;;;;;26.48;13.73;;;0.30;81.70;;;;;;4969858;28;20130;-58
2022/12/10 06:15:53;;;;;;;23.42;12.73;;;0.30;81.70;;;;;;4970468;28;20442;-60
2022/12/10 06:18:20;;;;;;;22.15;14.80;;;0.30;81.80;;;;;;4970223;28;20039;-60
2022/12/10 06:20:46;;;;;;;22.35;13.07;;;0.30;81.90;;;;;;4969661;28;20054;-58
2022/12/10 06:23:12;;;;;;;24.90;15.52;;;0.30;82.00;;;;;;4969512;28;20093;-58
2022/12/10 06:25:38;;;;;;;22.58;12.00;;;0.30;82.00;;;;;;4970867;28;20077;-58
2022/12/10 06:28:05;;;;;;;27.55;15.13;;;0.30;82.10;;;;;;4970064;28;20031;-58
2022/12/10 06:30:31;;;;;;;23.55;15.25;;;0.30;82.10;;;;;;4953533;28;20023;-58
2022/12/10 06:32:56;;;;;;;22.90;11.95;;;0.30;82.00;;;;;;4969448;28;20509;-61
2022/12/10 06:35:22;;;;;;;21.63;13.00;;;0.40;82.00;;;;;;4968062;28;20030;-61
2022/12/10 06:37:49;;;;;;;15.75;11.63;;;0.40;81.90;;;;;;4969433;28;20035;-61
2022/12/10 06:40:15;;;;;;;21.75;11.35;;;0.40;81.90;;;;;;4969138;28;20018;-58
2022/12/10 06:42:41;;;;;;;17.70;11.93;;;0.40;82.00;;;;;;4967579;28;20027;-58
2022/12/10 06:45:07;;;;;;;29.20;13.93;;;0.30;82.10;;;;;;4970130;28;20042;-59
2022/12/10 06:47:32;;;;;;;24.50;11.93;;;0.20;82.30;;;;;;4968719;28;20497;-58
2022/12/10 06:49:58;;;;;;;25.02;14.55;;;0.20;82.50;;;;;;4967738;28;20038;-59
2022/12/10 06:52:24;;;;;;;19.98;13.02;;;0.20;82.60;;;;;;4967529;28;20031;-58
2022/12/10 06:54:50;;;;;;;21.98;14.50;;;0.20;82.70;;;;;;4967783;28;20027;-58
2022/12/10 06:57:16;;;;;;;18.10;14.38;;;0.20;82.70;;;;;;4967161;28;20405;-58
2022/12/10 06:59:41;;;;;;;23.92;12.38;;;0.20;82.80;;;;;;4968193;28;20109;-57
2022/12/10 07:02:11;;;;;;;32.53;14.95;;;0.10;82.80;;;;;;4971871;28;20455;-58
2022/12/10 07:04:37;;;;;;;43.90;13.32;;;0.10;82.90;;;;;;4967056;28;20039;-57
2022/12/10 07:07:03;;;;;;;35.97;15.55;;;0.10;82.90;;;;;;4970212;28;20035;-61
2022/12/10 07:09:28;;;;;;;26.35;13.93;;;0.10;82.90;;;;;;4971896;28;20506;-61
2022/12/10 07:11:54;;;;;;;28.77;13.60;;;0.10;83.00;;;;;;4971639;28;20098;-58
2022/12/10 07:14:19;;;;;;;24.48;14.73;;;0.00;83.00;;;;;;4969512;28;20550;-60
2022/12/10 07:16:45;;;;;;;46.50;15.00;;;0.00;83.20;;;;;;4972062;28;20034;-60
2022/12/10 07:19:12;;;;;;;56.60;14.02;;;-0.10;83.30;;;;;;4970007;28;20042;-60
2022/12/10 07:21:40;;;;;;;38.05;14.85;;;0.00;83.50;;;;;;4966923;28;20078;-61
2022/12/10 07:24:10;;;;;;;27.52;14.10;;;0.00;83.40;;;;;;4972898;28;20474;-61
2022/12/10 07:26:38;;;;;;;21.83;13.10;;;0.00;83.60;;;;;;4972541;28;20058;-57
2022/12/10 07:29:06;;;;;;;25.10;13.27;;;-0.10;83.70;;;;;;4973293;28;20022;-58
2022/12/10 07:31:32;;;;;;;31.60;16.27;;;-0.10;83.80;;;;;;4971637;28;20085;-58
2022/12/10 07:33:58;;;;;;;26.48;13.23;;;0.00;83.90;;;;;;4971946;28;20034;-58
2022/12/10 07:36:24;;;;;;;18.75;11.02;;;0.00;83.70;;;;;;4969344;28;20042;-56
2022/12/10 07:38:52;;;;;;;33.78;14.43;;;0.00;83.60;;;;;;4971290;28;20466;-57
2022/12/10 07:41:18;;;;;;;34.40;11.80;;;0.00;83.50;;;;;;4954283;28;20094;-60
2022/12/10 07:43:45;;;;;;;22.65;10.50;;;0.10;83.50;;;;;;4961024;28;20562;-58
2022/12/10 07:46:27;;;;;;;23.85;11.85;;;0.10;83.50;;;;;;4967512;28;20505;-59
2022/12/10 07:48:54;;;;;;;52.75;14.55;;;0.20;83.30;;;;;;4971663;28;20493;-57
2022/12/10 07:51:22;;;;;;;25.95;13.32;;;0.20;83.20;;;;;;4971495;28;20019;-56
2022/12/10 07:53:50;;;;;;;26.58;15.13;;;0.20;83.30;;;;;;4969901;28;20050;-57
2022/12/10 07:56:16;;;;;;;21.48;13.68;;;0.10;83.30;;;;;;4970788;28;20027;-60
2022/12/10 07:58:45;;;;;;;20.13;13.30;;;0.20;83.40;;;;;;4971205;28;20039;-61
2022/12/10 08:01:24;;;;;;;26.30;17.60;;;0.20;83.80;;;;;;4971985;28;20015;-61
2022/12/10 08:03:52;;;;;;;21.38;13.10;;;0.30;83.20;;;;;;4973893;28;20452;-60
2022/12/10 08:06:20;;;;;;;24.33;14.68;;;0.20;83.10;;;;;;4969095;28;20504;-62
2022/12/10 08:08:46;;;;;;;24.48;13.38;;;0.20;83.10;;;;;;4971490;28;20081;-60
2022/12/10 08:11:14;;;;;;;20.77;13.02;;;0.20;83.30;;;;;;4970758;28;20127;-62
2022/12/10 08:13:40;;;;;;;22.35;14.13;;;0.20;83.40;;;;;;4969598;28;20058;-62
2022/12/10 08:16:11;;;;;;;30.52;15.40;;;0.10;83.40;;;;;;4970320;28;20065;-61
2022/12/10 08:18:37;;;;;;;29.88;15.00;;;0.20;83.40;;;;;;4970289;28;20023;-62
2022/12/10 08:21:15;;;;;;;37.40;13.88;;;0.20;83.30;;;;;;4969771;28;20023;-63
2022/12/10 08:23:41;;;;;;;32.05;14.93;;;0.20;83.40;;;;;;4983663;28;20026;-60
2022/12/10 08:26:10;;;;;;;23.15;13.80;;;0.20;83.40;;;;;;4969681;28;20107;-60
2022/12/10 08:28:36;;;;;;;22.58;14.60;;;0.20;83.40;;;;;;4971169;28;20019;-56
2022/12/10 08:31:02;;;;;;;20.60;13.63;;;0.20;83.50;;;;;;4965689;28;20118;-57
2022/12/10 08:33:28;;;;;;;18.92;11.23;;;0.20;83.60;;;;;;4962532;28;20165;-56
2022/12/10 08:36:00;;;;;;;25.58;13.52;;;0.20;83.60;;;;;;4962396;28;20047;-55
2022/12/10 08:38:27;;;;;;;34.00;12.95;;;0.20;83.60;;;;;;4970134;28;20444;-58
2022/12/10 08:40:52;;;;;;;31.73;15.55;;;0.20;83.70;;;;;;4967729;28;20589;-60
2022/12/10 08:43:18;;;;;;;25.35;12.95;;;0.20;83.70;;;;;;4970601;28;20039;-61
2022/12/10 08:45:44;;;;;;;25.13;13.98;;;0.20;83.80;;;;;;4959156;28;20035;-60
2022/12/10 08:48:09;;;;;;;22.02;14.15;;;0.30;83.90;;;;;;4985362;28;20401;-61
2022/12/10 08:50:36;;;;;;;30.48;14.63;;;0.30;84.30;;;;;;4970330;28;20383;-60
2022/12/10 08:53:02;;;;;;;21.77;12.85;;;0.40;83.60;;;;;;4985032;28;20062;-57
2022/12/10 08:55:28;;;;;;;21.85;13.80;;;0.40;83.60;;;;;;4970858;28;20517;-56
2022/12/10 08:57:53;;;;;;;25.92;13.20;;;0.40;83.70;;;;;;4966906;28;20058;-58
2022/12/10 09:00:19;;;;;;;25.63;14.45;;;0.40;83.70;;;;;;4970510;28;20027;-60
2022/12/10 09:02:45;;;;;;;30.48;12.45;;;0.40;83.70;;;;;;4970997;28;20371;-58
2022/12/10 09:05:12;;;;;;;30.40;13.43;;;0.40;83.80;;;;;;4976692;28;20033;-59
2022/12/10 09:07:37;;;;;;;23.63;14.27;;;0.40;83.90;;;;;;4971032;28;20037;-60
2022/12/10 09:10:03;;;;;;;23.10;13.35;;;0.40;84.00;;;;;;4971875;28;20521;-60
2022/12/10 09:12:29;;;;;;;28.00;12.25;;;0.50;83.90;;;;;;4971190;28;20023;-60
2022/12/10 09:14:55;;;;;;;30.38;15.15;;;0.60;83.90;;;;;;4971800;28;20688;-58
2022/12/10 09:17:21;;;;;;;22.85;13.13;;;0.60;83.80;;;;;;4970325;28;20086;-60
2022/12/10 09:19:47;;;;;;;50.95;12.40;;;0.60;83.80;;;;;;4968004;28;20042;-60
2022/12/10 09:22:13;;;;;;;19.63;12.52;;;0.70;83.80;;;;;;4968002;28;20035;-60
2022/12/10 09:24:39;;;;;;;22.60;12.02;;;0.70;83.60;;;;;;4980527;28;20031;-56
2022/12/10 09:27:04;;;;;;;21.20;13.82;;;0.80;83.50;;;;;;4969311;28;20058;-60
2022/12/10 09:29:30;;;;;;;25.77;13.73;;;0.80;83.50;;;;;;4962559;28;20019;-60
2022/12/10 09:31:56;;;;;;;20.15;14.13;;;0.70;83.40;;;;;;4955618;28;20033;-60
2022/12/10 09:34:21;;;;;;;32.50;12.68;;;0.70;83.60;;;;;;4952087;28;20028;-60
2022/12/10 09:36:47;;;;;;;28.73;13.85;;;0.70;83.60;;;;;;4954205;28;20114;-57
2022/12/10 09:39:13;;;;;;;18.58;11.00;;;0.70;83.70;;;;;;4955194;28;20035;-58
2022/12/10 09:41:54;;;;;;;23.27;12.18;;;0.80;83.70;;;;;;4961172;28;20500;-58
2022/12/10 09:44:37;;;;;;;25.83;12.63;;;0.80;83.70;;;;;;4955048;28;20383;-58
2022/12/10 09:47:07;;;;;;;24.00;12.15;;;0.80;83.90;;;;;;4966831;28;20407;-60
2022/12/10 09:49:41;;;;;;;27.40;14.02;;;0.80;83.90;;;;;;4956900;28;20457;-60
2022/12/10 09:52:13;;;;;;;21.92;10.55;;;0.90;83.90;;;;;;4965893;28;20073;-57
2022/12/10 09:54:54;;;;;;;19.98;11.57;;;0.90;83.70;;;;;;4969640;28;20026;-61
2022/12/10 09:57:30;;;;;;;22.23;12.75;;;0.90;83.60;;;;;;4965695;28;20034;-56
2022/12/10 10:00:15;;;;;;;23.65;12.80;;;0.90;83.70;;;;;;4967295;28;20050;-55
2022/12/10 10:02:41;;;;;;;31.52;14.85;;;0.90;83.80;;;;;;4969051;28;20034;-60
2022/12/10 10:05:13;;;;;;;21.75;13.80;;;0.90;83.80;;;;;;4970520;28;20363;-57
2022/12/10 10:07:47;;;;;;;;;;;0.90;83.90;;;;;;4970452;28;20097;-60
2022/12/10 10:10:24;;;;;;;18.27;9.60;;;0.90;84.00;;;;;;4966657;28;19914;-58
2022/12/10 10:12:54;;;;;;;20.77;12.30;;;0.80;84.10;;;;;;4969571;28;20118;-57
2022/12/10 10:15:34;;;;;;;20.88;12.25;;;0.90;84.00;;;;;;4958424;28;20500;-58
2022/12/10 10:18:14;;;;;;;36.10;16.10;;;0.90;84.00;;;;;;4950956;28;20074;-58
2022/12/10 10:20:39;;;;;;;48.92;13.98;;;0.90;83.90;;;;;;4958231;28;21228;-58
2022/12/10 10:23:06;;;;;;;19.75;13.10;;;0.90;84.10;;;;;;4964484;28;20031;-60
2022/12/10 10:25:31;;;;;;;22.88;12.88;;;0.90;84.20;;;;;;4965327;28;20039;-60
2022/12/10 10:27:57;;;;;;;26.23;14.23;;;0.90;84.30;;;;;;4961397;28;20027;-60
2022/12/10 10:30:24;;;;;;;22.27;13.48;;;0.90;84.30;;;;;;4957269;28;20027;-60
2022/12/10 10:32:56;;;;;;;23.33;11.68;;;1.00;84.30;;;;;;4969650;28;20031;-60
2022/12/10 10:35:28;;;;;;;23.05;15.20;;;1.00;84.30;;;;;;4955985;28;20019;-60
2022/12/10 10:38:05;;;;;;;21.77;13.02;;;1.00;84.30;;;;;;4958832;28;20031;-64
2022/12/10 10:40:43;;;;;;;19.80;11.68;;;1.10;84.20;;;;;;4956044;28;20035;-63
2022/12/10 10:43:26;;;;;;;18.65;11.60;;;1.20;83.90;;;;;;4961683;28;20027;-63
2022/12/10 10:46:00;;;;;;;28.15;13.98;;;1.20;84.10;;;;;;4964328;28;20041;-59
2022/12/10 10:48:27;;;;;;;20.08;11.73;;;1.20;84.10;;;;;;4968353;28;20031;-59
2022/12/10 10:51:11;;;;;;;27.02;11.55;;;1.20;84.00;;;;;;4956577;28;20306;-59
2022/12/10 10:53:43;;;;;;;21.30;12.73;;;1.20;83.90;;;;;;4961131;28;20516;-60
2022/12/10 10:56:20;;;;;;;24.33;13.50;;;1.20;84.00;;;;;;4959365;28;20119;-60
2022/12/10 10:59:07;;;;;;;64.75;14.95;;;1.10;84.00;;;;;;4959013;28;20033;-60
2022/12/10 11:02:16;;;;;;;32.88;13.93;;;1.20;84.30;;;;;;4966503;28;20038;-59
2022/12/10 11:04:53;;;;;;;20.35;13.48;;;1.10;84.30;;;;;;4955947;28;20043;-60
2022/12/10 11:07:39;;;;;;;22.77;13.35;;;1.10;84.50;;;;;;4963550;28;20043;-59
2022/12/10 11:10:32;;;;;;;25.52;11.77;;;1.20;84.40;;;;;;4957211;28;20059;-60
2022/12/10 11:13:04;;;;;;;27.92;12.50;;;1.20;84.40;;;;;;4960041;28;20401;-59
2022/12/10 11:15:41;;;;;;;19.85;10.32;;;1.20;84.40;;;;;;4965252;28;20106;-59
2022/12/10 11:18:36;;;;;;;23.38;11.23;;;1.30;84.50;;;;;;4958493;28;20027;-60
2022/12/10 11:21:04;;;;;;;19.73;12.43;;;1.40;84.30;;;;;;4954151;28;20030;-58
2022/12/10 11:23:36;;;;;;;20.17;11.90;;;1.40;84.10;;;;;;4965119;28;20090;-61
2022/12/10 11:26:33;;;;;;;18.65;10.48;;;1.50;84.00;;;;;;4974108;28;20090;-58
2022/12/10 11:29:24;;;;;;;18.05;12.10;;;1.50;83.90;;;;;;4974127;28;20035;-56
2022/12/10 11:31:49;;;;;;;20.02;13.70;;;1.50;83.70;;;;;;4971580;28;20509;-59
2022/12/10 11:34:49;;;;;;;34.90;12.75;;;1.50;83.80;;;;;;4965473;28;20031;-59
2022/12/10 11:37:32;;;;;;;22.63;12.63;;;1.50;83.90;;;;;;4981331;28;20118;-59
2022/12/10 11:40:29;;;;;;;24.00;13.20;;;1.50;84.00;;;;;;4968275;28;20055;-59
2022/12/10 11:43:13;;;;;;;16.52;11.30;;;1.50;84.10;;;;;;4968089;28;20348;-58
2022/12/10 11:45:50;;;;;;;22.92;11.48;;;1.50;84.10;;;;;;4962322;28;20027;-58
2022/12/10 11:48:25;;;;;;;56.53;14.13;;;1.50;84.10;;;;;;4965832;28;20566;-58
2022/12/10 11:50:57;;;;;;;22.45;12.75;;;1.50;84.30;;;;;;4963972;28;20566;-60
2022/12/10 11:53:40;;;;;;;17.35;11.25;;;1.50;84.20;;;;;;4971074;28;20034;-58
2022/12/10 11:56:24;;;;;;;19.38;10.88;;;1.50;84.20;;;;;;4968903;28;20035;-58
2022/12/10 11:59:04;;;;;;;25.08;12.32;;;1.60;84.10;;;;;;4967304;28;20160;-59
2022/12/10 12:02:02;;;;;;;21.98;12.57;;;1.50;84.20;;;;;;4972906;28;20030;-58
2022/12/10 12:04:39;;;;;;;28.35;11.90;;;1.50;84.30;;;;;;4943518;28;20066;-60
2022/12/10 12:07:44;;;;;;;16.17;11.32;;;1.50;84.40;;;;;;4966354;28;20157;-60
2022/12/10 12:10:22;;;;;;;26.17;12.73;;;1.40;84.30;;;;;;4963454;28;20078;-60
2022/12/10 12:12:53;;;;;;;19.33;11.85;;;1.40;84.50;;;;;;4970750;28;20034;-59
2022/12/10 12:15:29;;;;;;;15.82;11.60;;;1.40;84.60;;;;;;4970235;28;20035;-59
2022/12/10 12:18:22;;;;;;;20.70;11.48;;;1.50;84.60;;;;;;4970029;28;20065;-59
2022/12/10 12:20:58;;;;;;;20.00;11.10;;;1.60;84.40;;;;;;4969321;28;20042;-58
2022/12/10 12:23:50;;;;;;;28.75;13.15;;;1.50;84.40;;;;;;4970194;28;20478;-59
2022/12/10 12:26:16;;;;;;;19.13;12.10;;;1.60;84.30;;;;;;4971178;28;20034;-58
2022/12/10 12:28:50;;;;;;;20.15;12.93;;;1.60;84.20;;;;;;4968150;28;20029;-59
2022/12/10 12:31:30;;;;;;;21.45;12.50;;;1.60;84.20;;;;;;4969244;28;20448;-58
2022/12/10 12:34:05;;;;;;;22.95;12.82;;;1.60;84.20;;;;;;4974973;28;20429;-58
2022/12/10 12:36:34;;;;;;;27.02;13.52;;;1.60;84.30;;;;;;4971553;28;20995;-60
2022/12/10 12:39:32;;;;;;;20.55;11.85;;;1.60;84.30;;;;;;4967742;28;20027;-60
2022/12/10 12:42:17;;;;;;;28.83;14.07;;;1.70;84.20;;;;;;4965966;28;20557;-60
2022/12/10 12:45:01;;;;;;;19.50;12.30;;;1.70;84.20;;;;;;4968231;28;20254;-60
2022/12/10 12:47:44;;;;;;;29.95;12.98;;;1.70;84.30;;;;;;4970395;28;20038;-60
2022/12/10 12:50:42;;;;;;;20.80;12.07;;;1.70;84.30;;;;;;4966704;28;20050;-58
2022/12/10 12:53:14;;;;;;;24.40;10.90;;;1.60;84.20;;;;;;4969649;28;20035;-60
2022/12/10 12:55:42;;;;;;;33.53;13.45;;;1.50;84.40;;;;;;4970307;28;20031;-57
2022/12/10 12:58:38;;;;;;;43.33;12.95;;;1.50;84.50;;;;;;4969608;28;20035;-58
2022/12/10 13:01:16;;;;;;;19.45;12.00;;;1.60;84.50;;;;;;4968692;28;20047;-59
2022/12/10 13:03:44;;;;;;;24.42;12.27;;;1.60;84.60;;;;;;4969170;28;20555;-58
2022/12/10 13:06:31;;;;;;;29.20;14.57;;;1.60;84.70;;;;;;4967963;28;20049;-58
2022/12/10 13:09:11;;;;;;;21.00;13.18;;;1.60;84.50;;;;;;4952303;28;20093;-60
2022/12/10 13:11:37;;;;;;;30.73;12.70;;;1.60;84.60;;;;;;4970225;28;20026;-59